sensor_id;sensor_type;location;lat;lon;timestamp;P1;durP1;ratioP1;P2;durP2;ratioP2
33644;SDS011;19986;48.190;16.366;2023-03-14T00:02:07;46.28;;;43.75;;
33644;SDS011;19986;48.190;16.366;2023-03-14T00:04:33;43.78;;;41.35;;
33644;SDS011;19986;48.190;16.366;2023-03-14T00:06:59;42.40;;;40.08;;
33644;SDS011;19986;48.190;16.366;2023-03-14T00:09:25;43.38;;;41.05;;
33644;SDS011;19986;48.190;16.366;2023-03-14T00:11:52;43.45;;;40.95;;
33644;SDS011;19986;48.190;16.366;2023-03-14T00:14:18;43.65;;;41.13;;
33644;SDS011;19986;48.190;16.366;2023-03-14T00:16:47;39.92;;;37.60;;
33644;SDS011;19986;48.190;16.366;2023-03-14T00:19:13;41.13;;;38.75;;
33644;SDS011;19986;48.190;16.366;2023-03-14T00:21:39;44.95;;;42.25;;
33644;SDS011;19986;48.190;16.366;2023-03-14T00:24:05;42.22;;;39.67;;
33644;SDS011;19986;48.190;16.366;2023-03-14T00:26:31;44.47;;;42.08;;
33644;SDS011;19986;48.190;16.366;2023-03-14T00:28:57;47.40;;;44.60;;
33644;SDS011;19986;48.190;16.366;2023-03-14T00:31:23;44.45;;;41.72;;
33644;SDS011;19986;48.190;16.366;2023-03-14T00:33:51;45.08;;;42.17;;
33644;SDS011;19986;48.190;16.366;2023-03-14T00:36:18;42.97;;;40.58;;
33644;SDS011;19986;48.190;16.366;2023-03-14T00:38:46;43.00;;;40.70;;
33644;SDS011;19986;48.190;16.366;2023-03-14T00:41:15;44.28;;;41.67;;
33644;SDS011;19986;48.190;16.366;2023-03-14T00:43:48;44.90;;;42.35;;
33644;SDS011;19986;48.190;16.366;2023-03-14T00:46:14;43.03;;;40.50;;
33644;SDS011;19986;48.190;16.366;2023-03-14T00:48:40;43.53;;;41.13;;
33644;SDS011;19986;48.190;16.366;2023-03-14T00:51:07;43.22;;;40.75;;
33644;SDS011;19986;48.190;16.366;2023-03-14T00:53:37;44.42;;;42.17;;
33644;SDS011;19986;48.190;16.366;2023-03-14T00:56:04;42.90;;;40.65;;
33644;SDS011;19986;48.190;16.366;2023-03-14T00:58:31;43.28;;;40.78;;
33644;SDS011;19986;48.190;16.366;2023-03-14T01:00:58;42.92;;;40.53;;
33644;SDS011;19986;48.190;16.366;2023-03-14T01:03:24;42.63;;;40.13;;
33644;SDS011;19986;48.190;16.366;2023-03-14T01:05:50;43.72;;;41.40;;
33644;SDS011;19986;48.190;16.366;2023-03-14T01:08:16;41.92;;;39.63;;
33644;SDS011;19986;48.190;16.366;2023-03-14T01:10:42;44.88;;;42.38;;
33644;SDS011;19986;48.190;16.366;2023-03-14T01:13:09;43.10;;;40.70;;
33644;SDS011;19986;48.190;16.366;2023-03-14T01:15:35;41.95;;;39.60;;
33644;SDS011;19986;48.190;16.366;2023-03-14T01:18:03;43.70;;;41.00;;
33644;SDS011;19986;48.190;16.366;2023-03-14T01:20:29;44.45;;;42.13;;
33644;SDS011;19986;48.190;16.366;2023-03-14T01:22:55;43.47;;;41.03;;
33644;SDS011;19986;48.190;16.366;2023-03-14T01:25:21;44.45;;;41.92;;
33644;SDS011;19986;48.190;16.366;2023-03-14T01:27:47;44.15;;;41.85;;
33644;SDS011;19986;48.190;16.366;2023-03-14T01:30:13;44.20;;;41.90;;
33644;SDS011;19986;48.190;16.366;2023-03-14T01:32:39;43.42;;;41.15;;
33644;SDS011;19986;48.190;16.366;2023-03-14T01:35:06;43.88;;;41.47;;
33644;SDS011;19986;48.190;16.366;2023-03-14T01:37:32;42.95;;;40.47;;
33644;SDS011;19986;48.190;16.366;2023-03-14T01:39:58;43.83;;;41.13;;
33644;SDS011;19986;48.190;16.366;2023-03-14T01:42:24;46.15;;;43.58;;
33644;SDS011;19986;48.190;16.366;2023-03-14T01:44:51;44.03;;;41.63;;
33644;SDS011;19986;48.190;16.366;2023-03-14T01:47:25;44.05;;;41.60;;
33644;SDS011;19986;48.190;16.366;2023-03-14T01:49:53;44.60;;;41.65;;
33644;SDS011;19986;48.190;16.366;2023-03-14T01:55:02;43.65;;;41.25;;
33644;SDS011;19986;48.190;16.366;2023-03-14T02:02:29;42.38;;;39.85;;
33644;SDS011;19986;48.190;16.366;2023-03-14T02:04:56;43.72;;;41.15;;
33644;SDS011;19986;48.190;16.366;2023-03-14T02:07:26;44.13;;;41.15;;
33644;SDS011;19986;48.190;16.366;2023-03-14T02:10:00;45.45;;;42.75;;
33644;SDS011;19986;48.190;16.366;2023-03-14T02:12:28;43.67;;;40.90;;
33644;SDS011;19986;48.190;16.366;2023-03-14T02:14:54;44.53;;;41.72;;
33644;SDS011;19986;48.190;16.366;2023-03-14T02:17:21;45.88;;;43.03;;
33644;SDS011;19986;48.190;16.366;2023-03-14T02:22:31;45.25;;;42.38;;
33644;SDS011;19986;48.190;16.366;2023-03-14T02:27:38;43.17;;;40.63;;
33644;SDS011;19986;48.190;16.366;2023-03-14T02:30:07;44.83;;;42.10;;
33644;SDS011;19986;48.190;16.366;2023-03-14T02:32:41;45.70;;;42.83;;
33644;SDS011;19986;48.190;16.366;2023-03-14T02:35:11;44.60;;;42.08;;
33644;SDS011;19986;48.190;16.366;2023-03-14T02:37:46;46.53;;;43.92;;
33644;SDS011;19986;48.190;16.366;2023-03-14T02:40:16;46.17;;;43.58;;
33644;SDS011;19986;48.190;16.366;2023-03-14T02:42:43;45.35;;;42.75;;
33644;SDS011;19986;48.190;16.366;2023-03-14T02:47:43;44.92;;;42.33;;
33644;SDS011;19986;48.190;16.366;2023-03-14T02:50:14;45.85;;;42.97;;
33644;SDS011;19986;48.190;16.366;2023-03-14T02:52:44;45.85;;;43.13;;
33644;SDS011;19986;48.190;16.366;2023-03-14T02:55:11;44.17;;;41.65;;
33644;SDS011;19986;48.190;16.366;2023-03-14T02:57:38;46.65;;;43.55;;
33644;SDS011;19986;48.190;16.366;2023-03-14T03:00:04;47.40;;;44.75;;
33644;SDS011;19986;48.190;16.366;2023-03-14T03:02:31;45.20;;;42.45;;
33644;SDS011;19986;48.190;16.366;2023-03-14T03:04:58;46.92;;;43.88;;
33644;SDS011;19986;48.190;16.366;2023-03-14T03:07:24;43.80;;;40.92;;
33644;SDS011;19986;48.190;16.366;2023-03-14T03:09:51;46.00;;;43.47;;
33644;SDS011;19986;48.190;16.366;2023-03-14T03:12:17;44.53;;;42.00;;
33644;SDS011;19986;48.190;16.366;2023-03-14T03:14:43;45.63;;;42.80;;
33644;SDS011;19986;48.190;16.366;2023-03-14T03:17:10;43.40;;;40.75;;
33644;SDS011;19986;48.190;16.366;2023-03-14T03:19:36;45.30;;;42.80;;
33644;SDS011;19986;48.190;16.366;2023-03-14T03:22:02;43.38;;;40.80;;
33644;SDS011;19986;48.190;16.366;2023-03-14T03:24:28;44.60;;;42.10;;
33644;SDS011;19986;48.190;16.366;2023-03-14T03:26:53;45.38;;;42.67;;
33644;SDS011;19986;48.190;16.366;2023-03-14T03:29:19;44.60;;;42.10;;
33644;SDS011;19986;48.190;16.366;2023-03-14T03:31:45;42.67;;;40.20;;
33644;SDS011;19986;48.190;16.366;2023-03-14T03:34:11;45.47;;;42.95;;
33644;SDS011;19986;48.190;16.366;2023-03-14T03:36:38;41.95;;;39.58;;
33644;SDS011;19986;48.190;16.366;2023-03-14T03:39:04;45.25;;;42.53;;
33644;SDS011;19986;48.190;16.366;2023-03-14T03:41:30;45.35;;;42.85;;
33644;SDS011;19986;48.190;16.366;2023-03-14T03:43:56;46.55;;;43.85;;
33644;SDS011;19986;48.190;16.366;2023-03-14T03:46:22;46.25;;;43.58;;
33644;SDS011;19986;48.190;16.366;2023-03-14T03:48:48;44.92;;;42.47;;
33644;SDS011;19986;48.190;16.366;2023-03-14T03:51:23;44.50;;;42.13;;
33644;SDS011;19986;48.190;16.366;2023-03-14T03:53:49;46.25;;;43.60;;
33644;SDS011;19986;48.190;16.366;2023-03-14T03:56:15;43.03;;;40.53;;
33644;SDS011;19986;48.190;16.366;2023-03-14T03:58:41;45.63;;;42.83;;
33644;SDS011;19986;48.190;16.366;2023-03-14T04:01:07;44.28;;;41.78;;
33644;SDS011;19986;48.190;16.366;2023-03-14T04:03:34;45.90;;;43.28;;
33644;SDS011;19986;48.190;16.366;2023-03-14T04:06:01;44.40;;;41.85;;
33644;SDS011;19986;48.190;16.366;2023-03-14T04:08:29;45.20;;;42.50;;
33644;SDS011;19986;48.190;16.366;2023-03-14T04:10:58;43.65;;;41.05;;
33644;SDS011;19986;48.190;16.366;2023-03-14T04:13:26;45.22;;;42.72;;
33644;SDS011;19986;48.190;16.366;2023-03-14T04:15:53;45.13;;;42.47;;
33644;SDS011;19986;48.190;16.366;2023-03-14T04:18:20;50.30;;;47.28;;
33644;SDS011;19986;48.190;16.366;2023-03-14T04:20:50;45.03;;;42.40;;
33644;SDS011;19986;48.190;16.366;2023-03-14T04:23:17;46.97;;;44.28;;
33644;SDS011;19986;48.190;16.366;2023-03-14T04:25:43;46.13;;;43.63;;
33644;SDS011;19986;48.190;16.366;2023-03-14T04:28:09;45.80;;;43.10;;
33644;SDS011;19986;48.190;16.366;2023-03-14T04:30:35;46.08;;;43.50;;
33644;SDS011;19986;48.190;16.366;2023-03-14T04:33:01;46.83;;;44.05;;
33644;SDS011;19986;48.190;16.366;2023-03-14T04:35:27;46.42;;;43.75;;
33644;SDS011;19986;48.190;16.366;2023-03-14T04:37:55;46.85;;;43.83;;
33644;SDS011;19986;48.190;16.366;2023-03-14T04:40:21;46.67;;;43.70;;
33644;SDS011;19986;48.190;16.366;2023-03-14T04:42:46;46.72;;;43.63;;
33644;SDS011;19986;48.190;16.366;2023-03-14T04:45:12;46.80;;;43.80;;
33644;SDS011;19986;48.190;16.366;2023-03-14T04:47:39;44.97;;;42.53;;
33644;SDS011;19986;48.190;16.366;2023-03-14T04:50:05;46.13;;;43.55;;
33644;SDS011;19986;48.190;16.366;2023-03-14T04:52:31;48.15;;;45.45;;
33644;SDS011;19986;48.190;16.366;2023-03-14T04:54:57;46.03;;;43.00;;
33644;SDS011;19986;48.190;16.366;2023-03-14T04:57:23;44.90;;;42.42;;
33644;SDS011;19986;48.190;16.366;2023-03-14T04:59:49;46.00;;;43.40;;
33644;SDS011;19986;48.190;16.366;2023-03-14T05:02:15;44.90;;;42.20;;
33644;SDS011;19986;48.190;16.366;2023-03-14T05:04:40;46.33;;;43.83;;
33644;SDS011;19986;48.190;16.366;2023-03-14T05:07:06;42.47;;;40.05;;
33644;SDS011;19986;48.190;16.366;2023-03-14T05:09:32;45.50;;;42.90;;
33644;SDS011;19986;48.190;16.366;2023-03-14T05:11:58;45.22;;;42.38;;
33644;SDS011;19986;48.190;16.366;2023-03-14T05:14:24;45.95;;;43.47;;
33644;SDS011;19986;48.190;16.366;2023-03-14T05:16:50;46.47;;;43.78;;
33644;SDS011;19986;48.190;16.366;2023-03-14T05:19:16;45.30;;;42.78;;
33644;SDS011;19986;48.190;16.366;2023-03-14T05:21:42;47.45;;;44.25;;
33644;SDS011;19986;48.190;16.366;2023-03-14T05:24:08;46.35;;;43.55;;
33644;SDS011;19986;48.190;16.366;2023-03-14T05:26:34;45.50;;;42.72;;
33644;SDS011;19986;48.190;16.366;2023-03-14T05:28:59;45.65;;;43.15;;
33644;SDS011;19986;48.190;16.366;2023-03-14T05:31:25;45.92;;;43.28;;
33644;SDS011;19986;48.190;16.366;2023-03-14T05:33:51;46.83;;;44.30;;
33644;SDS011;19986;48.190;16.366;2023-03-14T05:36:17;46.38;;;43.90;;
33644;SDS011;19986;48.190;16.366;2023-03-14T05:38:43;47.17;;;44.25;;
33644;SDS011;19986;48.190;16.366;2023-03-14T05:41:09;45.92;;;42.90;;
33644;SDS011;19986;48.190;16.366;2023-03-14T05:43:35;44.42;;;41.83;;
33644;SDS011;19986;48.190;16.366;2023-03-14T05:46:00;46.90;;;44.08;;
33644;SDS011;19986;48.190;16.366;2023-03-14T05:48:26;48.63;;;45.05;;
33644;SDS011;19986;48.190;16.366;2023-03-14T05:50:55;46.72;;;43.75;;
33644;SDS011;19986;48.190;16.366;2023-03-14T05:53:21;46.70;;;43.67;;
33644;SDS011;19986;48.190;16.366;2023-03-14T05:55:50;46.65;;;43.85;;
33644;SDS011;19986;48.190;16.366;2023-03-14T05:58:19;46.13;;;43.33;;
33644;SDS011;19986;48.190;16.366;2023-03-14T06:00:45;45.53;;;42.88;;
33644;SDS011;19986;48.190;16.366;2023-03-14T06:03:11;44.45;;;41.80;;
33644;SDS011;19986;48.190;16.366;2023-03-14T06:05:38;45.90;;;42.95;;
33644;SDS011;19986;48.190;16.366;2023-03-14T06:08:04;46.10;;;42.53;;
33644;SDS011;19986;48.190;16.366;2023-03-14T06:10:31;47.50;;;44.30;;
33644;SDS011;19986;48.190;16.366;2023-03-14T06:12:57;47.35;;;44.63;;
33644;SDS011;19986;48.190;16.366;2023-03-14T06:15:22;45.50;;;42.45;;
33644;SDS011;19986;48.190;16.366;2023-03-14T06:17:48;45.80;;;43.30;;
33644;SDS011;19986;48.190;16.366;2023-03-14T06:20:15;45.75;;;42.83;;
33644;SDS011;19986;48.190;16.366;2023-03-14T06:22:41;44.63;;;41.28;;
33644;SDS011;19986;48.190;16.366;2023-03-14T06:25:07;44.50;;;41.80;;
33644;SDS011;19986;48.190;16.366;2023-03-14T06:27:33;44.72;;;42.05;;
33644;SDS011;19986;48.190;16.366;2023-03-14T06:29:59;44.42;;;41.70;;
33644;SDS011;19986;48.190;16.366;2023-03-14T06:32:25;47.95;;;44.60;;
33644;SDS011;19986;48.190;16.366;2023-03-14T06:34:51;47.47;;;44.50;;
33644;SDS011;19986;48.190;16.366;2023-03-14T06:37:18;46.30;;;43.05;;
33644;SDS011;19986;48.190;16.366;2023-03-14T06:39:44;45.75;;;42.38;;
33644;SDS011;19986;48.190;16.366;2023-03-14T06:42:10;46.55;;;42.75;;
33644;SDS011;19986;48.190;16.366;2023-03-14T06:44:36;45.22;;;42.13;;
33644;SDS011;19986;48.190;16.366;2023-03-14T06:47:02;45.95;;;42.88;;
33644;SDS011;19986;48.190;16.366;2023-03-14T06:49:28;43.67;;;40.53;;
33644;SDS011;19986;48.190;16.366;2023-03-14T06:51:54;44.03;;;41.17;;
33644;SDS011;19986;48.190;16.366;2023-03-14T06:54:19;45.28;;;42.10;;
33644;SDS011;19986;48.190;16.366;2023-03-14T06:56:45;46.28;;;41.75;;
33644;SDS011;19986;48.190;16.366;2023-03-14T06:59:11;45.78;;;42.67;;
33644;SDS011;19986;48.190;16.366;2023-03-14T07:01:37;46.20;;;42.80;;
33644;SDS011;19986;48.190;16.366;2023-03-14T07:04:03;46.75;;;43.17;;
33644;SDS011;19986;48.190;16.366;2023-03-14T07:06:29;44.78;;;41.65;;
33644;SDS011;19986;48.190;16.366;2023-03-14T07:08:56;48.92;;;44.97;;
33644;SDS011;19986;48.190;16.366;2023-03-14T07:11:22;47.20;;;43.90;;
33644;SDS011;19986;48.190;16.366;2023-03-14T07:13:48;46.55;;;42.33;;
33644;SDS011;19986;48.190;16.366;2023-03-14T07:16:14;47.75;;;43.78;;
33644;SDS011;19986;48.190;16.366;2023-03-14T07:18:40;46.30;;;43.28;;
33644;SDS011;19986;48.190;16.366;2023-03-14T07:21:06;47.08;;;43.72;;
33644;SDS011;19986;48.190;16.366;2023-03-14T07:23:34;49.80;;;46.05;;
33644;SDS011;19986;48.190;16.366;2023-03-14T07:26:00;47.92;;;45.00;;
33644;SDS011;19986;48.190;16.366;2023-03-14T07:28:26;46.75;;;43.40;;
33644;SDS011;19986;48.190;16.366;2023-03-14T07:30:53;45.78;;;42.63;;
33644;SDS011;19986;48.190;16.366;2023-03-14T07:33:19;46.88;;;43.60;;
33644;SDS011;19986;48.190;16.366;2023-03-14T07:35:48;44.60;;;41.72;;
33644;SDS011;19986;48.190;16.366;2023-03-14T07:38:15;46.08;;;42.90;;
33644;SDS011;19986;48.190;16.366;2023-03-14T07:40:42;45.08;;;41.72;;
33644;SDS011;19986;48.190;16.366;2023-03-14T07:43:08;47.33;;;44.13;;
33644;SDS011;19986;48.190;16.366;2023-03-14T07:45:33;45.63;;;42.67;;
33644;SDS011;19986;48.190;16.366;2023-03-14T07:47:59;45.45;;;42.03;;
33644;SDS011;19986;48.190;16.366;2023-03-14T07:50:27;46.70;;;43.15;;
33644;SDS011;19986;48.190;16.366;2023-03-14T07:52:54;42.70;;;39.78;;
33644;SDS011;19986;48.190;16.366;2023-03-14T07:55:20;42.40;;;39.90;;
33644;SDS011;19986;48.190;16.366;2023-03-14T07:57:46;41.33;;;38.80;;
33644;SDS011;19986;48.190;16.366;2023-03-14T08:00:13;40.58;;;38.40;;
33644;SDS011;19986;48.190;16.366;2023-03-14T08:02:40;40.60;;;38.40;;
33644;SDS011;19986;48.190;16.366;2023-03-14T08:05:06;41.33;;;39.22;;
33644;SDS011;19986;48.190;16.366;2023-03-14T08:07:32;39.45;;;37.13;;
33644;SDS011;19986;48.190;16.366;2023-03-14T08:09:58;41.22;;;39.03;;
33644;SDS011;19986;48.190;16.366;2023-03-14T08:12:24;41.60;;;39.00;;
33644;SDS011;19986;48.190;16.366;2023-03-14T08:14:50;38.55;;;36.83;;
33644;SDS011;19986;48.190;16.366;2023-03-14T08:17:15;36.47;;;34.58;;
33644;SDS011;19986;48.190;16.366;2023-03-14T08:19:41;40.55;;;38.03;;
33644;SDS011;19986;48.190;16.366;2023-03-14T08:22:08;39.58;;;37.63;;
33644;SDS011;19986;48.190;16.366;2023-03-14T08:24:34;39.22;;;37.20;;
33644;SDS011;19986;48.190;16.366;2023-03-14T08:27:00;37.92;;;36.22;;
33644;SDS011;19986;48.190;16.366;2023-03-14T08:29:26;37.70;;;35.78;;
33644;SDS011;19986;48.190;16.366;2023-03-14T08:31:51;37.83;;;36.13;;
33644;SDS011;19986;48.190;16.366;2023-03-14T08:34:18;37.70;;;36.00;;
33644;SDS011;19986;48.190;16.366;2023-03-14T08:36:44;39.30;;;37.50;;
33644;SDS011;19986;48.190;16.366;2023-03-14T08:39:10;39.67;;;37.85;;
33644;SDS011;19986;48.190;16.366;2023-03-14T08:41:36;40.90;;;38.92;;
33644;SDS011;19986;48.190;16.366;2023-03-14T08:44:08;36.75;;;34.92;;
33644;SDS011;19986;48.190;16.366;2023-03-14T08:46:34;38.22;;;36.42;;
33644;SDS011;19986;48.190;16.366;2023-03-14T08:49:00;38.00;;;36.10;;
33644;SDS011;19986;48.190;16.366;2023-03-14T08:51:26;38.95;;;37.15;;
33644;SDS011;19986;48.190;16.366;2023-03-14T08:53:52;37.97;;;36.17;;
33644;SDS011;19986;48.190;16.366;2023-03-14T08:56:18;37.78;;;35.92;;
33644;SDS011;19986;48.190;16.366;2023-03-14T08:58:44;39.10;;;36.80;;
33644;SDS011;19986;48.190;16.366;2023-03-14T09:01:10;38.78;;;36.88;;
33644;SDS011;19986;48.190;16.366;2023-03-14T09:03:36;40.80;;;37.05;;
33644;SDS011;19986;48.190;16.366;2023-03-14T09:06:04;38.53;;;36.22;;
33644;SDS011;19986;48.190;16.366;2023-03-14T09:08:34;37.47;;;35.28;;
33644;SDS011;19986;48.190;16.366;2023-03-14T09:11:01;39.05;;;37.03;;
33644;SDS011;19986;48.190;16.366;2023-03-14T09:13:27;40.55;;;38.35;;
33644;SDS011;19986;48.190;16.366;2023-03-14T09:15:54;40.50;;;37.97;;
33644;SDS011;19986;48.190;16.366;2023-03-14T09:18:21;38.30;;;36.38;;
33644;SDS011;19986;48.190;16.366;2023-03-14T09:20:48;43.60;;;40.47;;
33644;SDS011;19986;48.190;16.366;2023-03-14T09:23:14;43.30;;;40.47;;
33644;SDS011;19986;48.190;16.366;2023-03-14T09:25:40;41.78;;;39.15;;
33644;SDS011;19986;48.190;16.366;2023-03-14T09:28:06;43.22;;;40.25;;
33644;SDS011;19986;48.190;16.366;2023-03-14T09:30:32;42.35;;;40.05;;
33644;SDS011;19986;48.190;16.366;2023-03-14T09:32:58;40.65;;;38.20;;
33644;SDS011;19986;48.190;16.366;2023-03-14T09:35:24;39.60;;;36.72;;
33644;SDS011;19986;48.190;16.366;2023-03-14T09:37:50;40.15;;;37.25;;
33644;SDS011;19986;48.190;16.366;2023-03-14T09:40:17;42.28;;;39.67;;
33644;SDS011;19986;48.190;16.366;2023-03-14T09:42:45;40.78;;;38.28;;
33644;SDS011;19986;48.190;16.366;2023-03-14T09:45:17;44.50;;;41.15;;
33644;SDS011;19986;48.190;16.366;2023-03-14T09:47:50;46.30;;;42.17;;
33644;SDS011;19986;48.190;16.366;2023-03-14T09:50:17;48.25;;;44.05;;
33644;SDS011;19986;48.190;16.366;2023-03-14T09:52:45;47.75;;;42.15;;
33644;SDS011;19986;48.190;16.366;2023-03-14T09:55:13;44.20;;;39.72;;
33644;SDS011;19986;48.190;16.366;2023-03-14T09:57:43;47.25;;;43.67;;
33644;SDS011;19986;48.190;16.366;2023-03-14T10:00:13;47.97;;;43.97;;
33644;SDS011;19986;48.190;16.366;2023-03-14T10:02:41;44.83;;;41.65;;
33644;SDS011;19986;48.190;16.366;2023-03-14T10:05:15;42.42;;;39.17;;
33644;SDS011;19986;48.190;16.366;2023-03-14T10:07:43;41.47;;;38.33;;
33644;SDS011;19986;48.190;16.366;2023-03-14T10:10:20;40.17;;;37.45;;
33644;SDS011;19986;48.190;16.366;2023-03-14T10:12:58;42.08;;;39.03;;
33644;SDS011;19986;48.190;16.366;2023-03-14T10:15:30;44.63;;;41.35;;
33644;SDS011;19986;48.190;16.366;2023-03-14T10:17:58;42.05;;;38.55;;
33644;SDS011;19986;48.190;16.366;2023-03-14T10:20:33;42.03;;;39.47;;
33644;SDS011;19986;48.190;16.366;2023-03-14T10:23:02;42.58;;;40.30;;
33644;SDS011;19986;48.190;16.366;2023-03-14T10:25:32;41.83;;;39.05;;
33644;SDS011;19986;48.190;16.366;2023-03-14T10:27:59;43.88;;;40.47;;
33644;SDS011;19986;48.190;16.366;2023-03-14T10:30:28;45.78;;;42.47;;
33644;SDS011;19986;48.190;16.366;2023-03-14T10:35:55;45.45;;;42.08;;
33644;SDS011;19986;48.190;16.366;2023-03-14T10:38:27;42.13;;;39.30;;
33644;SDS011;19986;48.190;16.366;2023-03-14T10:40:55;40.10;;;37.63;;
33644;SDS011;19986;48.190;16.366;2023-03-14T10:43:23;38.33;;;36.28;;
33644;SDS011;19986;48.190;16.366;2023-03-14T10:45:56;38.38;;;36.42;;
33644;SDS011;19986;48.190;16.366;2023-03-14T10:48:25;38.15;;;36.33;;
33644;SDS011;19986;48.190;16.366;2023-03-14T10:53:54;38.75;;;36.72;;
33644;SDS011;19986;48.190;16.366;2023-03-14T10:56:23;38.97;;;36.92;;
33644;SDS011;19986;48.190;16.366;2023-03-14T10:58:51;42.63;;;40.13;;
33644;SDS011;19986;48.190;16.366;2023-03-14T11:01:24;40.90;;;38.78;;
33644;SDS011;19986;48.190;16.366;2023-03-14T11:06:44;37.40;;;35.60;;
33644;SDS011;19986;48.190;16.366;2023-03-14T11:09:31;39.35;;;37.38;;
33644;SDS011;19986;48.190;16.366;2023-03-14T11:15:04;38.67;;;36.58;;
33644;SDS011;19986;48.190;16.366;2023-03-14T11:28:41;39.05;;;37.15;;
33644;SDS011;19986;48.190;16.366;2023-03-14T11:36:33;38.95;;;37.15;;
33644;SDS011;19986;48.190;16.366;2023-03-14T11:39:16;35.70;;;34.10;;
33644;SDS011;19986;48.190;16.366;2023-03-14T11:41:45;39.33;;;37.45;;
33644;SDS011;19986;48.190;16.366;2023-03-14T11:44:36;38.97;;;36.92;;
33644;SDS011;19986;48.190;16.366;2023-03-14T11:49:47;40.63;;;38.50;;
33644;SDS011;19986;48.190;16.366;2023-03-14T11:54:55;39.78;;;37.75;;
33644;SDS011;19986;48.190;16.366;2023-03-14T11:57:42;39.58;;;37.75;;
33644;SDS011;19986;48.190;16.366;2023-03-14T12:14:26;39.67;;;37.80;;
33644;SDS011;19986;48.190;16.366;2023-03-14T12:17:58;39.47;;;37.47;;
33644;SDS011;19986;48.190;16.366;2023-03-14T12:22:52;40.95;;;38.95;;
33644;SDS011;19986;48.190;16.366;2023-03-14T12:25:31;40.00;;;38.10;;
33644;SDS011;19986;48.190;16.366;2023-03-14T12:33:41;38.92;;;37.03;;
33644;SDS011;19986;48.190;16.366;2023-03-14T12:35:47;39.33;;;37.33;;
33644;SDS011;19986;48.190;16.366;2023-03-14T12:40:50;42.53;;;40.63;;
33644;SDS011;19986;48.190;16.366;2023-03-14T12:43:27;40.13;;;38.22;;
33644;SDS011;19986;48.190;16.366;2023-03-14T12:49:04;38.53;;;36.72;;
33644;SDS011;19986;48.190;16.366;2023-03-14T12:51:39;39.38;;;37.47;;
33644;SDS011;19986;48.190;16.366;2023-03-14T12:56:57;41.33;;;39.17;;
33644;SDS011;19986;48.190;16.366;2023-03-14T12:59:38;40.10;;;38.17;;
33644;SDS011;19986;48.190;16.366;2023-03-14T13:02:29;37.83;;;36.00;;
33644;SDS011;19986;48.190;16.366;2023-03-14T13:10:18;38.63;;;36.92;;
33644;SDS011;19986;48.190;16.366;2023-03-14T13:12:55;40.55;;;38.45;;
33644;SDS011;19986;48.190;16.366;2023-03-14T13:15:34;40.00;;;37.97;;
33644;SDS011;19986;48.190;16.366;2023-03-14T13:18:15;41.08;;;39.17;;
33644;SDS011;19986;48.190;16.366;2023-03-14T13:23:32;39.20;;;37.30;;
33644;SDS011;19986;48.190;16.366;2023-03-14T13:26:00;39.03;;;36.92;;
33644;SDS011;19986;48.190;16.366;2023-03-14T13:28:27;37.38;;;35.67;;
33644;SDS011;19986;48.190;16.366;2023-03-14T13:30:56;40.03;;;38.05;;
33644;SDS011;19986;48.190;16.366;2023-03-14T13:33:24;41.38;;;39.25;;
33644;SDS011;19986;48.190;16.366;2023-03-14T13:38:28;40.92;;;39.03;;
33644;SDS011;19986;48.190;16.366;2023-03-14T13:40:57;39.22;;;37.38;;
33644;SDS011;19986;48.190;16.366;2023-03-14T13:43:27;39.08;;;37.17;;
33644;SDS011;19986;48.190;16.366;2023-03-14T13:46:00;39.42;;;37.63;;
33644;SDS011;19986;48.190;16.366;2023-03-14T13:48:27;40.17;;;38.28;;
33644;SDS011;19986;48.190;16.366;2023-03-14T13:50:59;38.97;;;37.08;;
33644;SDS011;19986;48.190;16.366;2023-03-14T13:53:26;41.58;;;39.72;;
33644;SDS011;19986;48.190;16.366;2023-03-14T13:55:52;39.65;;;37.08;;
33644;SDS011;19986;48.190;16.366;2023-03-14T13:58:23;40.92;;;39.00;;
33644;SDS011;19986;48.190;16.366;2023-03-14T14:03:27;38.92;;;37.13;;
33644;SDS011;19986;48.190;16.366;2023-03-14T14:06:02;41.25;;;39.25;;
33644;SDS011;19986;48.190;16.366;2023-03-14T14:08:29;39.42;;;37.53;;
33644;SDS011;19986;48.190;16.366;2023-03-14T14:10:59;41.20;;;39.30;;
33644;SDS011;19986;48.190;16.366;2023-03-14T14:13:29;39.55;;;37.67;;
33644;SDS011;19986;48.190;16.366;2023-03-14T14:15:59;42.03;;;40.13;;
33644;SDS011;19986;48.190;16.366;2023-03-14T14:18:28;39.05;;;37.28;;
33644;SDS011;19986;48.190;16.366;2023-03-14T14:20:57;40.78;;;38.85;;
33644;SDS011;19986;48.190;16.366;2023-03-14T14:23:24;38.78;;;37.08;;
33644;SDS011;19986;48.190;16.366;2023-03-14T14:25:54;40.38;;;38.58;;
33644;SDS011;19986;48.190;16.366;2023-03-14T14:28:33;41.28;;;39.38;;
33644;SDS011;19986;48.190;16.366;2023-03-14T14:36:30;42.30;;;40.15;;
33644;SDS011;19986;48.190;16.366;2023-03-14T14:38:58;38.45;;;36.38;;
33644;SDS011;19986;48.190;16.366;2023-03-14T14:41:28;38.78;;;36.97;;
33644;SDS011;19986;48.190;16.366;2023-03-14T14:43:55;40.65;;;38.08;;
33644;SDS011;19986;48.190;16.366;2023-03-14T14:46:22;39.42;;;37.20;;
33644;SDS011;19986;48.190;16.366;2023-03-14T14:48:55;38.83;;;36.92;;
33644;SDS011;19986;48.190;16.366;2023-03-14T14:51:24;38.10;;;36.30;;
33644;SDS011;19986;48.190;16.366;2023-03-14T14:54:09;37.17;;;35.47;;
33644;SDS011;19986;48.190;16.366;2023-03-14T14:56:51;40.17;;;37.97;;
33644;SDS011;19986;48.190;16.366;2023-03-14T14:59:20;39.53;;;37.53;;
33644;SDS011;19986;48.190;16.366;2023-03-14T15:01:57;39.88;;;37.88;;
33644;SDS011;19986;48.190;16.366;2023-03-14T15:04:24;42.60;;;40.00;;
33644;SDS011;19986;48.190;16.366;2023-03-14T15:06:51;39.47;;;37.50;;
33644;SDS011;19986;48.190;16.366;2023-03-14T15:09:18;41.85;;;39.33;;
33644;SDS011;19986;48.190;16.366;2023-03-14T15:11:45;38.90;;;36.53;;
33644;SDS011;19986;48.190;16.366;2023-03-14T15:14:12;41.22;;;39.03;;
33644;SDS011;19986;48.190;16.366;2023-03-14T15:16:38;39.78;;;37.78;;
33644;SDS011;19986;48.190;16.366;2023-03-14T15:19:10;41.22;;;38.97;;
33644;SDS011;19986;48.190;16.366;2023-03-14T15:21:45;38.35;;;36.65;;
33644;SDS011;19986;48.190;16.366;2023-03-14T15:24:11;39.45;;;37.35;;
33644;SDS011;19986;48.190;16.366;2023-03-14T15:26:37;38.65;;;36.85;;
33644;SDS011;19986;48.190;16.366;2023-03-14T15:29:03;38.30;;;36.50;;
33644;SDS011;19986;48.190;16.366;2023-03-14T15:31:33;41.33;;;39.10;;
33644;SDS011;19986;48.190;16.366;2023-03-14T15:34:00;40.08;;;37.85;;
33644;SDS011;19986;48.190;16.366;2023-03-14T15:36:27;41.90;;;39.90;;
33644;SDS011;19986;48.190;16.366;2023-03-14T15:38:56;41.08;;;38.95;;
33644;SDS011;19986;48.190;16.366;2023-03-14T15:41:23;40.95;;;38.85;;
33644;SDS011;19986;48.190;16.366;2023-03-14T15:43:50;40.35;;;38.25;;
33644;SDS011;19986;48.190;16.366;2023-03-14T15:46:16;39.17;;;37.13;;
33644;SDS011;19986;48.190;16.366;2023-03-14T15:48:43;40.50;;;38.22;;
33644;SDS011;19986;48.190;16.366;2023-03-14T15:51:09;42.72;;;40.63;;
33644;SDS011;19986;48.190;16.366;2023-03-14T15:53:36;39.88;;;37.78;;